createdAt,value
2022-08-09T00:02:30.823Z,5.00
2022-08-09T00:07:44.587Z,5.30
2022-08-09T00:12:51.673Z,4.63
2022-08-09T00:18:09.324Z,5.23
2022-08-09T00:23:55.641Z,5.60
2022-08-09T00:28:39.769Z,5.60
2022-08-09T00:33:50.342Z,5.17
2022-08-09T00:38:54.412Z,5.05
2022-08-09T00:44:10.642Z,6.05
2022-08-09T00:49:20.608Z,6.27
2022-08-09T00:54:31.406Z,8.05
2022-08-09T00:59:46.081Z,8.68
2022-08-09T01:05:13.906Z,7.07
2022-08-09T01:10:28.844Z,4.97
2022-08-09T01:15:41.145Z,5.60
2022-08-09T01:21:10.849Z,5.22
2022-08-09T01:26:38.858Z,4.50
2022-08-09T01:32:33.260Z,4.78
2022-08-09T01:37:10.707Z,5.05
2022-08-09T01:42:16.967Z,4.70
2022-08-09T01:47:21.451Z,4.82
2022-08-09T01:52:26.611Z,4.47
2022-08-09T01:57:44.340Z,4.13
2022-08-09T02:02:50.812Z,3.93
2022-08-09T02:08:39.896Z,4.35
2022-08-09T02:13:40.266Z,4.85
2022-08-09T02:18:47.953Z,4.83
2022-08-09T02:23:54.983Z,4.13
2022-08-09T02:29:02.671Z,4.28
2022-08-09T02:34:40.238Z,3.60
2022-08-09T02:39:44.428Z,4.78
2022-08-09T02:44:50.921Z,4.28
2022-08-09T02:50:01.545Z,4.03
2022-08-09T02:55:20.795Z,4.20
2022-08-09T03:00:25.987Z,3.58
2022-08-09T03:05:29.573Z,3.85
2022-08-09T03:10:37.365Z,3.97
2022-08-09T03:16:05.838Z,4.55
2022-08-09T03:21:03.713Z,4.43
2022-08-09T03:26:06.611Z,4.43
2022-08-09T03:31:21.366Z,4.32
2022-08-09T03:36:27.544Z,4.25
2022-08-09T03:41:48.433Z,4.30
2022-08-09T03:46:51.641Z,4.23
2022-08-09T03:52:00.285Z,4.47
2022-08-09T03:57:18.340Z,4.13
2022-08-09T04:02:26.522Z,4.70
2022-08-09T04:07:47.056Z,4.72
2022-08-09T04:12:55.443Z,4.72
2022-08-09T04:17:58.013Z,4.30
2022-08-09T04:23:01.995Z,4.72
2022-08-09T04:28:04.948Z,4.70
2022-08-09T04:33:08.118Z,5.70
2022-08-09T04:38:10.590Z,6.43
2022-08-09T04:43:13.679Z,5.85
2022-08-09T04:48:17.869Z,5.45
2022-08-09T04:53:20.385Z,6.50
2022-08-09T04:58:24.619Z,6.07
2022-08-09T05:03:43.197Z,5.68
2022-08-09T05:08:47.912Z,6.00
2022-08-09T05:13:50.622Z,5.65
2022-08-09T05:18:59.889Z,6.32
2022-08-09T05:24:04.669Z,7.20
2022-08-09T05:29:07.519Z,6.63
2022-08-09T05:34:20.348Z,7.28
2022-08-09T05:39:29.068Z,6.88
2022-08-09T05:44:34.904Z,7.47
2022-08-09T05:50:30.293Z,7.35
2022-08-09T05:55:03.101Z,7.53
2022-08-09T06:00:10.935Z,6.97
2022-08-09T06:05:13.697Z,7.38
2022-08-09T06:10:18.084Z,7.05
2022-08-09T06:15:21.977Z,7.40
2022-08-09T06:20:24.500Z,7.77
2022-08-09T06:25:27.441Z,8.10
2022-08-09T06:30:29.944Z,8.98
2022-08-09T06:35:35.712Z,7.87
2022-08-09T06:40:57.749Z,8.50
2022-08-09T06:46:04.880Z,9.00
2022-08-09T06:51:11.354Z,10.40
2022-08-09T06:56:14.379Z,10.32
2022-08-09T07:01:17.190Z,10.45
2022-08-09T07:06:27.952Z,9.50
2022-08-09T07:11:45.461Z,10.27
2022-08-09T07:16:57.965Z,10.85
2022-08-09T07:22:01.139Z,11.73
2022-08-09T07:27:04.831Z,11.23
2022-08-09T07:32:33.516Z,12.20
2022-08-09T07:37:43.236Z,11.65
2022-08-09T07:42:54.470Z,12.13
2022-08-09T07:48:01.483Z,12.77
2022-08-09T07:53:08.978Z,12.70
2022-08-09T07:58:14.333Z,12.47
2022-08-09T08:03:18.054Z,12.63
2022-08-09T08:09:02.584Z,13.45
2022-08-09T08:13:56.350Z,13.88
2022-08-09T08:19:02.962Z,13.30
2022-08-09T08:24:11.881Z,13.55
2022-08-09T08:29:20.225Z,13.18
2022-08-09T08:34:29.807Z,14.03
2022-08-09T08:39:43.661Z,14.35
2022-08-09T08:44:49.509Z,13.85
2022-08-09T08:49:52.176Z,13.47
2022-08-09T08:54:59.090Z,14.80
2022-08-09T09:00:01.624Z,14.55
2022-08-09T09:05:06.045Z,14.07
2022-08-09T09:10:12.633Z,14.47
2022-08-09T09:15:28.364Z,15.52
2022-08-09T09:20:35.311Z,13.57
2022-08-09T09:26:01.762Z,14.37
2022-08-09T09:31:06.665Z,15.45
2022-08-09T09:36:21.261Z,14.45
2022-08-09T09:41:26.397Z,14.67
2022-08-09T09:46:41.923Z,14.33
2022-08-09T09:51:47.897Z,15.13
2022-08-09T09:58:00.656Z,14.05
2022-08-09T10:02:18.799Z,15.03
2022-08-09T10:07:27.331Z,14.30
2022-08-09T10:12:36.575Z,14.40
2022-08-09T10:17:56.115Z,15.00
2022-08-09T10:23:01.044Z,13.93
2022-08-09T10:28:04.104Z,16.00
2022-08-09T10:33:08.099Z,13.93
2022-08-09T10:38:13.689Z,14.27
2022-08-09T10:43:46.996Z,13.55
2022-08-09T10:49:50.880Z,14.82
2022-08-09T10:54:54.625Z,14.83
2022-08-09T10:59:58.557Z,15.52
2022-08-09T11:05:25.061Z,13.52
2022-08-09T11:10:47.042Z,13.87
2022-08-09T11:16:34.905Z,13.20
2022-08-09T11:21:57.358Z,14.93
2022-08-09T11:28:02.775Z,13.80
2022-08-09T11:33:11.572Z,13.67
2022-08-09T11:38:30.999Z,13.90
2022-08-09T11:43:35.350Z,12.30
2022-08-09T11:48:52.234Z,12.77
2022-08-09T11:54:27.589Z,13.63
2022-08-09T11:59:33.574Z,12.50
2022-08-09T12:04:38.120Z,13.93
2022-08-09T12:09:50.614Z,12.68
2022-08-09T12:15:08.479Z,13.30
2022-08-09T12:20:23.586Z,12.37
2022-08-09T12:25:36.766Z,12.03
2022-08-09T12:30:42.125Z,11.73
2022-08-09T12:35:45.773Z,11.60
2022-08-09T12:40:52.718Z,10.37
2022-08-09T12:45:59.425Z,9.45
2022-08-09T12:51:04.522Z,9.63
2022-08-09T12:56:14.001Z,10.00
2022-08-09T13:01:28.267Z,9.30
2022-08-09T13:06:34.306Z,9.18
2022-08-09T13:11:42.552Z,8.77
2022-08-09T13:16:53.478Z,7.77
2022-08-09T13:22:35.431Z,9.00
2022-08-09T13:27:48.766Z,6.60
2022-08-09T13:32:58.723Z,6.83
2022-08-09T13:38:02.596Z,7.05
2022-08-09T13:43:09.773Z,6.03
2022-08-09T13:48:14.659Z,6.80
2022-08-09T13:53:18.346Z,6.35
2022-08-09T13:58:21.169Z,6.15
2022-08-09T14:04:02.689Z,6.70
2022-08-09T14:08:46.853Z,5.97
2022-08-09T14:14:22.877Z,5.13
2022-08-09T14:19:12.035Z,5.68
2022-08-09T14:24:21.933Z,5.83
2022-08-09T14:30:35.619Z,6.43
2022-08-09T14:34:57.385Z,5.82
2022-08-09T14:39:59.921Z,6.17
2022-08-09T14:46:57.429Z,5.85
2022-08-09T14:50:31.690Z,6.55
2022-08-09T14:55:35.284Z,6.10
2022-08-09T15:00:42.330Z,6.20
2022-08-09T15:05:49.500Z,5.70
2022-08-09T15:11:00.704Z,5.78
2022-08-09T15:16:04.852Z,6.03
2022-08-09T15:21:55.731Z,6.63
2022-08-09T15:26:33.047Z,6.43
2022-08-09T15:31:40.971Z,6.70
2022-08-09T15:36:48.123Z,6.93
2022-08-09T15:41:50.954Z,7.05
2022-08-09T15:46:53.659Z,7.37
2022-08-09T15:52:04.543Z,5.83
2022-08-09T15:57:09.502Z,5.97
2022-08-09T16:02:13.369Z,6.43
2022-08-09T16:07:16.225Z,6.43
2022-08-09T16:12:19.597Z,7.03
2022-08-09T16:17:22.516Z,6.60
2022-08-09T16:22:27.530Z,6.70
2022-08-09T16:27:30.297Z,6.55
2022-08-09T16:32:53.547Z,6.43
2022-08-09T16:37:59.404Z,5.80
2022-08-09T16:43:04.853Z,6.20
2022-08-09T16:48:42.731Z,5.72
2022-08-09T16:53:33.940Z,5.40
2022-08-09T16:58:37.564Z,5.47
2022-08-09T17:03:42.565Z,5.00
2022-08-09T17:09:02.740Z,5.22
2022-08-09T17:14:07.714Z,4.53
2022-08-09T17:19:10.687Z,4.55
2022-08-09T17:24:21.055Z,4.93
2022-08-09T17:29:31.565Z,5.60
2022-08-09T17:35:07.352Z,5.53
2022-08-09T17:40:04.530Z,5.30
2022-08-09T17:45:27.346Z,5.25
2022-08-09T17:50:40.693Z,5.27
2022-08-09T17:56:03.319Z,4.55
2022-08-09T18:01:11.075Z,4.47
2022-08-09T18:06:30.968Z,4.60
2022-08-09T18:11:46.997Z,5.13
2022-08-09T18:17:00.372Z,4.80
2022-08-09T18:22:03.680Z,6.73
2022-08-09T18:27:08.552Z,4.77
2022-08-09T18:32:11.805Z,4.60
2022-08-09T18:37:49.138Z,5.00
2022-08-09T18:42:37.926Z,8.30
2022-08-09T18:47:45.756Z,4.13
2022-08-09T18:52:50.902Z,4.70
2022-08-09T18:57:56.303Z,5.57
2022-08-09T19:02:59.376Z,5.13
2022-08-09T19:08:09.534Z,5.75
2022-08-09T19:13:22.830Z,6.10
2022-08-09T19:18:36.477Z,7.00
2022-08-09T19:24:32.987Z,6.57
2022-08-09T19:29:15.036Z,8.35
2022-08-09T19:34:24.371Z,8.37
2022-08-09T19:39:43.300Z,7.85
2022-08-09T19:44:56.728Z,6.90
2022-08-09T19:50:10.077Z,7.90
2022-08-09T19:55:25.823Z,7.00
2022-08-09T20:00:33.769Z,7.93
2022-08-09T20:05:41.369Z,6.57
2022-08-09T20:10:51.097Z,7.80
2022-08-09T20:16:36.897Z,7.15
2022-08-09T20:21:18.608Z,7.55
2022-08-09T20:26:25.205Z,7.17
2022-08-09T20:31:31.061Z,7.47
2022-08-09T20:36:53.579Z,6.95
2022-08-09T20:41:56.468Z,8.07
2022-08-09T20:46:58.948Z,7.53
2022-08-09T20:52:02.317Z,6.65
2022-08-09T20:57:09.041Z,7.37
2022-08-09T21:02:18.863Z,7.87
2022-08-09T21:07:30.055Z,8.60
2022-08-09T21:18:21.318Z,7.90
2022-08-09T21:23:26.595Z,9.15
2022-08-09T21:28:55.890Z,8.85
2022-08-09T21:33:59.624Z,8.20
2022-08-09T21:39:04.866Z,7.63
2022-08-09T21:44:07.571Z,8.48
2022-08-09T21:49:11.240Z,8.13
2022-08-09T21:54:16.632Z,7.60
2022-08-09T21:59:19.319Z,9.13
2022-08-09T22:04:28.976Z,8.15
2022-08-09T22:09:48.503Z,8.20
2022-08-09T22:14:51.818Z,7.85
2022-08-09T22:19:58.851Z,9.45
2022-08-09T22:26:05.908Z,7.93
2022-08-09T22:30:33.155Z,8.32
2022-08-09T22:36:01.246Z,8.13
2022-08-09T22:40:58.655Z,9.40
2022-08-09T22:48:18.324Z,7.50
2022-08-09T22:51:24.345Z,7.93
2022-08-09T22:56:33.368Z,8.75
2022-08-09T23:01:38.987Z,8.97
2022-08-09T23:07:00.266Z,8.95
2022-08-09T23:12:03.035Z,7.82
2022-08-09T23:17:05.604Z,8.10
2022-08-09T23:22:08.259Z,8.50
2022-08-09T23:27:10.891Z,8.20
2022-08-09T23:32:13.419Z,8.53
2022-08-09T23:37:17.674Z,8.40
2022-08-09T23:42:24.043Z,8.35
2022-08-09T23:47:26.624Z,8.48
2022-08-09T23:52:29.113Z,8.47
2022-08-09T23:57:33.460Z,8.82
